sensor_id;sensor_type;location;lat;lon;timestamp;temperature;humidity
51878;SHT31;37911;51.526;11.536;2023-04-24T00:01:38;12.27;78.82
51878;SHT31;37911;51.526;11.536;2023-04-24T00:04:43;12.23;79.53
51878;SHT31;37911;51.526;11.536;2023-04-24T00:07:47;12.24;79.95
51878;SHT31;37911;51.526;11.536;2023-04-24T00:10:53;12.11;80.83
51878;SHT31;37911;51.526;11.536;2023-04-24T00:13:57;12.00;80.74
51878;SHT31;37911;51.526;11.536;2023-04-24T00:17:03;12.00;81.03
51878;SHT31;37911;51.526;11.536;2023-04-24T00:20:10;12.04;80.93
51878;SHT31;37911;51.526;11.536;2023-04-24T00:23:15;11.98;80.70
51878;SHT31;37911;51.526;11.536;2023-04-24T00:26:19;12.01;80.93
51878;SHT31;37911;51.526;11.536;2023-04-24T00:29:23;11.95;80.52
51878;SHT31;37911;51.526;11.536;2023-04-24T00:32:31;11.95;80.35
51878;SHT31;37911;51.526;11.536;2023-04-24T00:35:35;11.97;79.62
51878;SHT31;37911;51.526;11.536;2023-04-24T00:38:38;11.94;79.31
51878;SHT31;37911;51.526;11.536;2023-04-24T00:41:42;12.01;79.36
51878;SHT31;37911;51.526;11.536;2023-04-24T00:44:47;12.01;78.95
51878;SHT31;37911;51.526;11.536;2023-04-24T00:47:53;12.00;79.09
51878;SHT31;37911;51.526;11.536;2023-04-24T00:50:57;12.03;78.50
51878;SHT31;37911;51.526;11.536;2023-04-24T00:54:01;12.10;78.34
51878;SHT31;37911;51.526;11.536;2023-04-24T00:57:05;12.07;78.41
51878;SHT31;37911;51.526;11.536;2023-04-24T01:00:10;12.07;78.27
51878;SHT31;37911;51.526;11.536;2023-04-24T01:03:16;12.04;78.57
51878;SHT31;37911;51.526;11.536;2023-04-24T01:06:22;12.00;78.87
51878;SHT31;37911;51.526;11.536;2023-04-24T01:09:26;11.93;79.15
51878;SHT31;37911;51.526;11.536;2023-04-24T01:12:29;11.95;79.04
51878;SHT31;37911;51.526;11.536;2023-04-24T01:15:34;11.93;79.26
51878;SHT31;37911;51.526;11.536;2023-04-24T01:18:40;11.95;79.26
51878;SHT31;37911;51.526;11.536;2023-04-24T01:21:47;12.00;78.94
51878;SHT31;37911;51.526;11.536;2023-04-24T01:24:55;11.98;78.98
51878;SHT31;37911;51.526;11.536;2023-04-24T01:27:59;11.91;79.05
51878;SHT31;37911;51.526;11.536;2023-04-24T01:31:03;11.90;78.94
51878;SHT31;37911;51.526;11.536;2023-04-24T01:34:07;11.83;79.21
51878;SHT31;37911;51.526;11.536;2023-04-24T01:37:11;11.77;79.47
51878;SHT31;37911;51.526;11.536;2023-04-24T01:40:17;11.76;79.34
51878;SHT31;37911;51.526;11.536;2023-04-24T01:43:21;11.70;79.25
51878;SHT31;37911;51.526;11.536;2023-04-24T01:46:25;11.66;79.66
51878;SHT31;37911;51.526;11.536;2023-04-24T01:49:29;11.62;79.45
51878;SHT31;37911;51.526;11.536;2023-04-24T01:52:33;11.56;79.78
51878;SHT31;37911;51.526;11.536;2023-04-24T01:55:40;11.49;80.18
51878;SHT31;37911;51.526;11.536;2023-04-24T01:58:44;11.50;79.96
51878;SHT31;37911;51.526;11.536;2023-04-24T02:01:47;11.53;79.73
51878;SHT31;37911;51.526;11.536;2023-04-24T02:04:53;11.52;79.49
51878;SHT31;37911;51.526;11.536;2023-04-24T02:07:57;11.49;79.57
51878;SHT31;37911;51.526;11.536;2023-04-24T02:11:03;11.47;79.68
51878;SHT31;37911;51.526;11.536;2023-04-24T02:14:07;11.47;79.57
51878;SHT31;37911;51.526;11.536;2023-04-24T02:17:14;11.36;79.91
51878;SHT31;37911;51.526;11.536;2023-04-24T02:20:18;11.33;79.98
51878;SHT31;37911;51.526;11.536;2023-04-24T02:23:22;11.30;79.93
51878;SHT31;37911;51.526;11.536;2023-04-24T02:26:28;11.28;80.04
51878;SHT31;37911;51.526;11.536;2023-04-24T02:29:32;11.25;80.12
51878;SHT31;37911;51.526;11.536;2023-04-24T02:32:36;11.23;79.92
51878;SHT31;37911;51.526;11.536;2023-04-24T02:35:39;11.20;80.15
51878;SHT31;37911;51.526;11.536;2023-04-24T02:38:43;11.18;80.21
51878;SHT31;37911;51.526;11.536;2023-04-24T02:41:50;11.19;80.08
51878;SHT31;37911;51.526;11.536;2023-04-24T02:44:53;11.20;79.87
51878;SHT31;37911;51.526;11.536;2023-04-24T02:47:57;11.26;79.25
51878;SHT31;37911;51.526;11.536;2023-04-24T02:51:01;11.29;79.34
51878;SHT31;37911;51.526;11.536;2023-04-24T02:54:05;11.33;78.88
51878;SHT31;37911;51.526;11.536;2023-04-24T02:57:11;11.26;78.74
51878;SHT31;37911;51.526;11.536;2023-04-24T03:00:17;11.28;78.53
51878;SHT31;37911;51.526;11.536;2023-04-24T03:03:20;11.30;78.22
51878;SHT31;37911;51.526;11.536;2023-04-24T03:06:24;11.32;78.02
51878;SHT31;37911;51.526;11.536;2023-04-24T03:09:28;11.26;78.17
51878;SHT31;37911;51.526;11.536;2023-04-24T03:12:34;11.20;78.38
51878;SHT31;37911;51.526;11.536;2023-04-24T03:15:38;11.19;78.36
51878;SHT31;37911;51.526;11.536;2023-04-24T03:18:42;11.18;78.37
51878;SHT31;37911;51.526;11.536;2023-04-24T03:21:45;11.20;78.07
51878;SHT31;37911;51.526;11.536;2023-04-24T03:24:49;11.15;77.97
51878;SHT31;37911;51.526;11.536;2023-04-24T03:27:56;11.18;77.90
51878;SHT31;37911;51.526;11.536;2023-04-24T03:31:10;11.19;77.69
51878;SHT31;37911;51.526;11.536;2023-04-24T03:34:13;11.11;77.96
51878;SHT31;37911;51.526;11.536;2023-04-24T03:37:18;11.12;77.93
51878;SHT31;37911;51.526;11.536;2023-04-24T03:40:32;11.08;77.61
51878;SHT31;37911;51.526;11.536;2023-04-24T03:43:43;11.08;77.70
51878;SHT31;37911;51.526;11.536;2023-04-24T03:46:47;11.05;77.77
51878;SHT31;37911;51.526;11.536;2023-04-24T03:49:52;11.08;77.69
51878;SHT31;37911;51.526;11.536;2023-04-24T03:52:56;11.07;77.76
51878;SHT31;37911;51.526;11.536;2023-04-24T03:56:11;11.01;77.92
51878;SHT31;37911;51.526;11.536;2023-04-24T03:59:18;11.04;77.84
51878;SHT31;37911;51.526;11.536;2023-04-24T04:02:33;11.01;77.86
51878;SHT31;37911;51.526;11.536;2023-04-24T04:05:36;11.01;77.89
51878;SHT31;37911;51.526;11.536;2023-04-24T04:08:40;10.97;77.83
51878;SHT31;37911;51.526;11.536;2023-04-24T04:11:44;10.97;78.00
51878;SHT31;37911;51.526;11.536;2023-04-24T04:14:50;10.97;78.04
51878;SHT31;37911;51.526;11.536;2023-04-24T04:17:54;10.94;78.37
51878;SHT31;37911;51.526;11.536;2023-04-24T04:21:02;10.87;78.31
51878;SHT31;37911;51.526;11.536;2023-04-24T04:24:09;10.87;78.16
51878;SHT31;37911;51.526;11.536;2023-04-24T04:27:17;10.92;78.07
51878;SHT31;37911;51.526;11.536;2023-04-24T04:30:41;10.91;78.10
51878;SHT31;37911;51.526;11.536;2023-04-24T04:33:46;10.97;77.89
51878;SHT31;37911;51.526;11.536;2023-04-24T04:36:49;11.04;77.86
51878;SHT31;37911;51.526;11.536;2023-04-24T04:40:06;11.15;77.53
51878;SHT31;37911;51.526;11.536;2023-04-24T04:43:18;11.28;77.10
51878;SHT31;37911;51.526;11.536;2023-04-24T04:46:28;11.33;77.02
51878;SHT31;37911;51.526;11.536;2023-04-24T04:49:45;11.36;76.89
51878;SHT31;37911;51.526;11.536;2023-04-24T04:52:55;11.38;76.93
51878;SHT31;37911;51.526;11.536;2023-04-24T04:56:07;11.36;77.12
51878;SHT31;37911;51.526;11.536;2023-04-24T04:59:16;11.36;77.22
51878;SHT31;37911;51.526;11.536;2023-04-24T05:02:24;11.40;77.13
51878;SHT31;37911;51.526;11.536;2023-04-24T05:05:27;11.43;77.28
51878;SHT31;37911;51.526;11.536;2023-04-24T05:08:31;11.56;76.72
51878;SHT31;37911;51.526;11.536;2023-04-24T05:11:36;11.56;76.53
51878;SHT31;37911;51.526;11.536;2023-04-24T05:14:40;11.63;76.32
51878;SHT31;37911;51.526;11.536;2023-04-24T05:17:47;11.62;76.03
51878;SHT31;37911;51.526;11.536;2023-04-24T05:20:51;11.59;76.08
51878;SHT31;37911;51.526;11.536;2023-04-24T05:23:55;11.63;76.11
51878;SHT31;37911;51.526;11.536;2023-04-24T05:27:20;11.66;75.82
51878;SHT31;37911;51.526;11.536;2023-04-24T05:30:24;11.66;75.84
51878;SHT31;37911;51.526;11.536;2023-04-24T05:33:31;11.69;76.10
51878;SHT31;37911;51.526;11.536;2023-04-24T05:36:35;11.76;75.79
51878;SHT31;37911;51.526;11.536;2023-04-24T05:39:39;11.83;75.60
51878;SHT31;37911;51.526;11.536;2023-04-24T05:42:43;11.98;74.94
51878;SHT31;37911;51.526;11.536;2023-04-24T05:45:46;12.08;74.91
51878;SHT31;37911;51.526;11.536;2023-04-24T05:48:54;12.14;74.70
51878;SHT31;37911;51.526;11.536;2023-04-24T05:51:58;12.25;74.35
51878;SHT31;37911;51.526;11.536;2023-04-24T05:55:04;12.31;73.99
51878;SHT31;37911;51.526;11.536;2023-04-24T05:58:12;12.27;74.22
51878;SHT31;37911;51.526;11.536;2023-04-24T06:01:15;12.35;74.23
51878;SHT31;37911;51.526;11.536;2023-04-24T06:04:28;12.44;74.07
51878;SHT31;37911;51.526;11.536;2023-04-24T06:07:33;12.51;73.76
51878;SHT31;37911;51.526;11.536;2023-04-24T06:10:39;12.62;73.63
51878;SHT31;37911;51.526;11.536;2023-04-24T06:13:44;12.65;73.31
51878;SHT31;37911;51.526;11.536;2023-04-24T06:17:25;12.81;73.54
51878;SHT31;37911;51.526;11.536;2023-04-24T06:20:32;12.93;72.74
51878;SHT31;37911;51.526;11.536;2023-04-24T06:23:36;13.20;71.92
51878;SHT31;37911;51.526;11.536;2023-04-24T06:26:40;13.63;70.25
51878;SHT31;37911;51.526;11.536;2023-04-24T06:29:47;13.69;69.88
51878;SHT31;37911;51.526;11.536;2023-04-24T06:32:55;13.61;69.83
51878;SHT31;37911;51.526;11.536;2023-04-24T06:36:01;13.46;69.92
51878;SHT31;37911;51.526;11.536;2023-04-24T06:39:05;13.44;70.85
51878;SHT31;37911;51.526;11.536;2023-04-24T06:42:08;13.51;69.86
51878;SHT31;37911;51.526;11.536;2023-04-24T06:45:12;13.66;69.84
51878;SHT31;37911;51.526;11.536;2023-04-24T06:48:17;13.77;69.97
51878;SHT31;37911;51.526;11.536;2023-04-24T06:51:25;13.80;69.33
51878;SHT31;37911;51.526;11.536;2023-04-24T06:54:29;13.77;68.83
51878;SHT31;37911;51.526;11.536;2023-04-24T06:57:33;13.69;69.64
51878;SHT31;37911;51.526;11.536;2023-04-24T07:00:36;13.50;70.21
51878;SHT31;37911;51.526;11.536;2023-04-24T07:03:40;13.35;71.35
51878;SHT31;37911;51.526;11.536;2023-04-24T07:06:47;13.24;71.63
51878;SHT31;37911;51.526;11.536;2023-04-24T07:09:51;13.23;71.93
51878;SHT31;37911;51.526;11.536;2023-04-24T07:12:56;13.20;72.72
51878;SHT31;37911;51.526;11.536;2023-04-24T07:16:00;13.23;72.84
51878;SHT31;37911;51.526;11.536;2023-04-24T07:19:04;13.32;72.74
51878;SHT31;37911;51.526;11.536;2023-04-24T07:22:10;13.42;72.21
51878;SHT31;37911;51.526;11.536;2023-04-24T07:25:17;13.63;71.74
51878;SHT31;37911;51.526;11.536;2023-04-24T07:28:21;13.70;70.67
51878;SHT31;37911;51.526;11.536;2023-04-24T07:31:25;13.75;68.86
51878;SHT31;37911;51.526;11.536;2023-04-24T07:34:28;13.67;69.23
51878;SHT31;37911;51.526;11.536;2023-04-24T07:37:35;13.95;68.24
51878;SHT31;37911;51.526;11.536;2023-04-24T07:40:38;14.26;67.45
51878;SHT31;37911;51.526;11.536;2023-04-24T07:43:42;14.21;67.34
51878;SHT31;37911;51.526;11.536;2023-04-24T07:46:46;14.66;66.65
51878;SHT31;37911;51.526;11.536;2023-04-24T07:49:50;15.23;63.94
51878;SHT31;37911;51.526;11.536;2023-04-24T07:52:56;15.43;62.57
51878;SHT31;37911;51.526;11.536;2023-04-24T07:56:00;15.70;59.93
51878;SHT31;37911;51.526;11.536;2023-04-24T07:59:04;16.19;59.07
51878;SHT31;37911;51.526;11.536;2023-04-24T08:02:07;16.05;56.86
51878;SHT31;37911;51.526;11.536;2023-04-24T08:05:12;15.81;57.58
51878;SHT31;37911;51.526;11.536;2023-04-24T08:08:21;15.98;57.05
51878;SHT31;37911;51.526;11.536;2023-04-24T08:11:25;16.23;56.46
51878;SHT31;37911;51.526;11.536;2023-04-24T08:14:28;16.60;55.91
51878;SHT31;37911;51.526;11.536;2023-04-24T08:17:33;16.77;54.08
51878;SHT31;37911;51.526;11.536;2023-04-24T08:20:36;16.62;53.46
51878;SHT31;37911;51.526;11.536;2023-04-24T08:23:43;16.91;53.70
51878;SHT31;37911;51.526;11.536;2023-04-24T08:26:47;17.38;52.68
51878;SHT31;37911;51.526;11.536;2023-04-24T08:29:53;18.21;53.91
51878;SHT31;37911;51.526;11.536;2023-04-24T08:32:57;18.57;52.79
51878;SHT31;37911;51.526;11.536;2023-04-24T08:36:01;18.32;51.67
51878;SHT31;37911;51.526;11.536;2023-04-24T08:39:08;17.71;53.54
51878;SHT31;37911;51.526;11.536;2023-04-24T08:42:13;17.42;53.20
51878;SHT31;37911;51.526;11.536;2023-04-24T08:45:17;17.61;54.05
51878;SHT31;37911;51.526;11.536;2023-04-24T08:48:22;18.16;53.25
51878;SHT31;37911;51.526;11.536;2023-04-24T08:51:26;17.98;53.13
51878;SHT31;37911;51.526;11.536;2023-04-24T08:54:34;18.13;53.13
51878;SHT31;37911;51.526;11.536;2023-04-24T08:57:39;18.12;53.54
51878;SHT31;37911;51.526;11.536;2023-04-24T09:00:45;17.78;52.53
51878;SHT31;37911;51.526;11.536;2023-04-24T09:03:51;17.54;53.80
51878;SHT31;37911;51.526;11.536;2023-04-24T09:06:56;17.34;54.25
51878;SHT31;37911;51.526;11.536;2023-04-24T09:10:03;16.65;53.85
51878;SHT31;37911;51.526;11.536;2023-04-24T09:13:14;16.42;56.31
51878;SHT31;37911;51.526;11.536;2023-04-24T09:16:19;16.43;54.14
51878;SHT31;37911;51.526;11.536;2023-04-24T09:19:24;16.62;51.30
51878;SHT31;37911;51.526;11.536;2023-04-24T09:22:30;16.48;49.68
51878;SHT31;37911;51.526;11.536;2023-04-24T09:25:36;16.39;48.96
51878;SHT31;37911;51.526;11.536;2023-04-24T09:28:41;16.49;50.69
51878;SHT31;37911;51.526;11.536;2023-04-24T09:31:46;16.41;51.71
51878;SHT31;37911;51.526;11.536;2023-04-24T09:35:05;16.57;51.86
51878;SHT31;37911;51.526;11.536;2023-04-24T09:38:09;16.13;50.84
51878;SHT31;37911;51.526;11.536;2023-04-24T09:41:15;15.85;50.91
51878;SHT31;37911;51.526;11.536;2023-04-24T09:44:20;16.05;50.08
51878;SHT31;37911;51.526;11.536;2023-04-24T09:47:24;16.11;48.55
51878;SHT31;37911;51.526;11.536;2023-04-24T09:50:30;16.76;46.74
51878;SHT31;37911;51.526;11.536;2023-04-24T09:53:36;17.34;45.11
51878;SHT31;37911;51.526;11.536;2023-04-24T09:56:46;17.75;46.60
51878;SHT31;37911;51.526;11.536;2023-04-24T09:59:53;18.21;43.29
51878;SHT31;37911;51.526;11.536;2023-04-24T10:02:58;18.33;41.98
51878;SHT31;37911;51.526;11.536;2023-04-24T10:06:02;18.29;41.22
51878;SHT31;37911;51.526;11.536;2023-04-24T10:09:09;18.26;42.69
51878;SHT31;37911;51.526;11.536;2023-04-24T10:12:17;17.88;41.32
51878;SHT31;37911;51.526;11.536;2023-04-24T10:15:21;18.10;41.31
51878;SHT31;37911;51.526;11.536;2023-04-24T10:18:25;18.32;41.69
51878;SHT31;37911;51.526;11.536;2023-04-24T10:21:30;18.63;40.41
51878;SHT31;37911;51.526;11.536;2023-04-24T10:24:35;18.14;41.86
51878;SHT31;37911;51.526;11.536;2023-04-24T10:27:41;18.30;39.93
51878;SHT31;37911;51.526;11.536;2023-04-24T10:30:45;18.90;39.87
51878;SHT31;37911;51.526;11.536;2023-04-24T10:33:51;19.17;39.55
51878;SHT31;37911;51.526;11.536;2023-04-24T10:36:56;18.93;38.93
51878;SHT31;37911;51.526;11.536;2023-04-24T10:40:00;18.77;38.63
51878;SHT31;37911;51.526;11.536;2023-04-24T10:43:08;18.56;39.95
51878;SHT31;37911;51.526;11.536;2023-04-24T10:46:19;19.08;39.50
51878;SHT31;37911;51.526;11.536;2023-04-24T10:49:31;19.06;37.53
51878;SHT31;37911;51.526;11.536;2023-04-24T10:52:44;18.60;37.67
51878;SHT31;37911;51.526;11.536;2023-04-24T10:55:50;18.67;37.95
51878;SHT31;37911;51.526;11.536;2023-04-24T10:58:57;18.87;38.67
51878;SHT31;37911;51.526;11.536;2023-04-24T11:02:01;19.22;38.38
51878;SHT31;37911;51.526;11.536;2023-04-24T11:05:07;19.75;38.08
51878;SHT31;37911;51.526;11.536;2023-04-24T11:08:12;19.85;37.68
51878;SHT31;37911;51.526;11.536;2023-04-24T11:11:17;19.87;37.23
51878;SHT31;37911;51.526;11.536;2023-04-24T11:14:24;19.29;38.30
51878;SHT31;37911;51.526;11.536;2023-04-24T11:17:33;18.68;39.25
51878;SHT31;37911;51.526;11.536;2023-04-24T11:20:38;18.39;40.60
51878;SHT31;37911;51.526;11.536;2023-04-24T11:23:45;18.68;38.91
51878;SHT31;37911;51.526;11.536;2023-04-24T11:26:50;19.17;37.79
51878;SHT31;37911;51.526;11.536;2023-04-24T11:30:02;18.81;38.71
51878;SHT31;37911;51.526;11.536;2023-04-24T11:33:06;18.61;38.47
51878;SHT31;37911;51.526;11.536;2023-04-24T11:36:10;19.34;38.26
51878;SHT31;37911;51.526;11.536;2023-04-24T11:39:14;19.21;38.02
51878;SHT31;37911;51.526;11.536;2023-04-24T11:42:18;19.18;35.43
51878;SHT31;37911;51.526;11.536;2023-04-24T11:45:27;19.36;36.79
51878;SHT31;37911;51.526;11.536;2023-04-24T11:48:34;19.34;36.77
51878;SHT31;37911;51.526;11.536;2023-04-24T11:51:40;19.22;36.58
51878;SHT31;37911;51.526;11.536;2023-04-24T11:54:48;19.73;36.82
51878;SHT31;37911;51.526;11.536;2023-04-24T11:57:54;19.66;35.78
51878;SHT31;37911;51.526;11.536;2023-04-24T12:01:03;19.31;37.66
51878;SHT31;37911;51.526;11.536;2023-04-24T12:04:06;19.00;38.18
51878;SHT31;37911;51.526;11.536;2023-04-24T12:07:10;19.34;38.51
51878;SHT31;37911;51.526;11.536;2023-04-24T12:10:19;19.41;38.05
51878;SHT31;37911;51.526;11.536;2023-04-24T12:13:25;19.69;37.73
51878;SHT31;37911;51.526;11.536;2023-04-24T12:16:33;19.22;39.04
51878;SHT31;37911;51.526;11.536;2023-04-24T12:19:36;19.04;38.20
51878;SHT31;37911;51.526;11.536;2023-04-24T12:22:44;18.98;38.93
51878;SHT31;37911;51.526;11.536;2023-04-24T12:25:51;18.88;40.89
51878;SHT31;37911;51.526;11.536;2023-04-24T12:28:56;18.76;39.14
51878;SHT31;37911;51.526;11.536;2023-04-24T12:32:15;18.93;38.59
51878;SHT31;37911;51.526;11.536;2023-04-24T12:35:22;19.19;40.19
51878;SHT31;37911;51.526;11.536;2023-04-24T12:38:27;19.11;39.86
51878;SHT31;37911;51.526;11.536;2023-04-24T12:41:54;18.33;40.09
51878;SHT31;37911;51.526;11.536;2023-04-24T12:45:03;18.66;40.71
51878;SHT31;37911;51.526;11.536;2023-04-24T12:48:10;18.94;40.36
51878;SHT31;37911;51.526;11.536;2023-04-24T12:51:14;18.83;40.82
51878;SHT31;37911;51.526;11.536;2023-04-24T12:54:18;19.12;42.36
51878;SHT31;37911;51.526;11.536;2023-04-24T12:57:23;19.39;40.91
51878;SHT31;37911;51.526;11.536;2023-04-24T13:00:27;19.21;39.70
51878;SHT31;37911;51.526;11.536;2023-04-24T13:03:34;19.34;40.36
51878;SHT31;37911;51.526;11.536;2023-04-24T13:06:39;18.70;41.02
51878;SHT31;37911;51.526;11.536;2023-04-24T13:09:47;19.07;40.65
51878;SHT31;37911;51.526;11.536;2023-04-24T13:12:51;18.78;41.18
51878;SHT31;37911;51.526;11.536;2023-04-24T13:15:55;18.19;43.12
51878;SHT31;37911;51.526;11.536;2023-04-24T13:19:02;17.60;42.99
51878;SHT31;37911;51.526;11.536;2023-04-24T13:22:09;17.02;46.31
51878;SHT31;37911;51.526;11.536;2023-04-24T13:29:25;16.53;48.07
51878;SHT31;37911;51.526;11.536;2023-04-24T13:32:29;16.84;47.81
51878;SHT31;37911;51.526;11.536;2023-04-24T13:35:36;17.18;46.29
51878;SHT31;37911;51.526;11.536;2023-04-24T13:38:40;17.47;46.60
51878;SHT31;37911;51.526;11.536;2023-04-24T13:41:44;16.76;48.17
51878;SHT31;37911;51.526;11.536;2023-04-24T13:44:48;16.32;49.39
51878;SHT31;37911;51.526;11.536;2023-04-24T13:47:53;15.62;51.80
51878;SHT31;37911;51.526;11.536;2023-04-24T13:51:01;16.09;51.13
51878;SHT31;37911;51.526;11.536;2023-04-24T13:54:05;16.39;50.29
51878;SHT31;37911;51.526;11.536;2023-04-24T13:57:10;16.33;50.95
51878;SHT31;37911;51.526;11.536;2023-04-24T14:00:15;16.79;49.80
51878;SHT31;37911;51.526;11.536;2023-04-24T14:03:20;16.72;49.05
51878;SHT31;37911;51.526;11.536;2023-04-24T14:06:26;16.38;49.83
51878;SHT31;37911;51.526;11.536;2023-04-24T14:09:31;16.16;50.27
51878;SHT31;37911;51.526;11.536;2023-04-24T14:12:36;16.04;50.88
51878;SHT31;37911;51.526;11.536;2023-04-24T14:15:39;15.51;49.86
51878;SHT31;37911;51.526;11.536;2023-04-24T14:18:44;15.10;51.30
51878;SHT31;37911;51.526;11.536;2023-04-24T14:21:51;14.80;51.71
51878;SHT31;37911;51.526;11.536;2023-04-24T14:24:57;14.66;52.07
51878;SHT31;37911;51.526;11.536;2023-04-24T14:28:01;14.62;52.28
51878;SHT31;37911;51.526;11.536;2023-04-24T14:31:06;14.82;52.30
51878;SHT31;37911;51.526;11.536;2023-04-24T14:34:12;15.20;51.49
51878;SHT31;37911;51.526;11.536;2023-04-24T14:37:19;15.14;50.41
51878;SHT31;37911;51.526;11.536;2023-04-24T14:40:25;14.82;51.24
51878;SHT31;37911;51.526;11.536;2023-04-24T14:43:29;14.51;52.25
51878;SHT31;37911;51.526;11.536;2023-04-24T14:46:34;14.69;52.44
51878;SHT31;37911;51.526;11.536;2023-04-24T14:49:39;15.04;52.49
51878;SHT31;37911;51.526;11.536;2023-04-24T14:52:50;15.23;49.17
51878;SHT31;37911;51.526;11.536;2023-04-24T14:55:54;15.04;50.37
51878;SHT31;37911;51.526;11.536;2023-04-24T14:58:58;14.96;50.71
51878;SHT31;37911;51.526;11.536;2023-04-24T15:02:02;14.96;50.79
51878;SHT31;37911;51.526;11.536;2023-04-24T15:05:07;15.10;49.88
51878;SHT31;37911;51.526;11.536;2023-04-24T15:08:16;14.92;49.76
51878;SHT31;37911;51.526;11.536;2023-04-24T15:11:20;14.79;50.66
51878;SHT31;37911;51.526;11.536;2023-04-24T15:14:26;14.75;51.54
51878;SHT31;37911;51.526;11.536;2023-04-24T15:17:30;14.42;50.61
51878;SHT31;37911;51.526;11.536;2023-04-24T15:20:34;14.18;51.58
51878;SHT31;37911;51.526;11.536;2023-04-24T15:23:43;14.14;52.06
51878;SHT31;37911;51.526;11.536;2023-04-24T15:26:47;13.92;51.77
51878;SHT31;37911;51.526;11.536;2023-04-24T15:29:50;13.69;52.87
51878;SHT31;37911;51.526;11.536;2023-04-24T15:32:55;13.60;52.98
51878;SHT31;37911;51.526;11.536;2023-04-24T15:36:01;13.56;52.85
51878;SHT31;37911;51.526;11.536;2023-04-24T15:39:07;13.57;52.34
51878;SHT31;37911;51.526;11.536;2023-04-24T15:42:12;13.43;53.20
51878;SHT31;37911;51.526;11.536;2023-04-24T15:45:16;13.40;53.43
51878;SHT31;37911;51.526;11.536;2023-04-24T15:48:20;13.35;54.02
51878;SHT31;37911;51.526;11.536;2023-04-24T15:51:24;13.33;54.90
51878;SHT31;37911;51.526;11.536;2023-04-24T15:54:32;13.44;54.85
51878;SHT31;37911;51.526;11.536;2023-04-24T15:57:36;13.51;55.14
51878;SHT31;37911;51.526;11.536;2023-04-24T16:00:40;13.39;54.72
51878;SHT31;37911;51.526;11.536;2023-04-24T16:03:44;13.20;55.50
51878;SHT31;37911;51.526;11.536;2023-04-24T16:06:48;13.16;56.48
51878;SHT31;37911;51.526;11.536;2023-04-24T16:09:55;13.22;55.97
51878;SHT31;37911;51.526;11.536;2023-04-24T16:12:59;13.10;56.63
51878;SHT31;37911;51.526;11.536;2023-04-24T16:16:05;12.96;56.21
51878;SHT31;37911;51.526;11.536;2023-04-24T16:19:09;12.91;56.65
51878;SHT31;37911;51.526;11.536;2023-04-24T16:22:14;12.88;56.86
51878;SHT31;37911;51.526;11.536;2023-04-24T16:25:21;12.84;57.10
51878;SHT31;37911;51.526;11.536;2023-04-24T16:28:25;12.72;57.55
51878;SHT31;37911;51.526;11.536;2023-04-24T16:31:29;12.75;57.44
51878;SHT31;37911;51.526;11.536;2023-04-24T16:34:33;12.52;57.68
51878;SHT31;37911;51.526;11.536;2023-04-24T16:37:37;12.35;58.25
51878;SHT31;37911;51.526;11.536;2023-04-24T16:40:43;12.34;58.74
51878;SHT31;37911;51.526;11.536;2023-04-24T16:43:47;12.18;59.17
51878;SHT31;37911;51.526;11.536;2023-04-24T16:46:50;12.07;60.29
51878;SHT31;37911;51.526;11.536;2023-04-24T16:49:54;12.07;61.64
51878;SHT31;37911;51.526;11.536;2023-04-24T16:52:59;12.14;61.75
51878;SHT31;37911;51.526;11.536;2023-04-24T16:56:06;12.10;60.38
51878;SHT31;37911;51.526;11.536;2023-04-24T16:59:09;12.08;60.46
51878;SHT31;37911;51.526;11.536;2023-04-24T17:02:14;12.18;59.75
51878;SHT31;37911;51.526;11.536;2023-04-24T17:05:18;12.20;59.53
51878;SHT31;37911;51.526;11.536;2023-04-24T17:08:23;12.16;59.87
51878;SHT31;37911;51.526;11.536;2023-04-24T17:11:29;12.10;60.25
51878;SHT31;37911;51.526;11.536;2023-04-24T17:14:34;12.11;60.48
51878;SHT31;37911;51.526;11.536;2023-04-24T17:17:39;11.98;60.78
51878;SHT31;37911;51.526;11.536;2023-04-24T17:20:45;11.95;59.56
51878;SHT31;37911;51.526;11.536;2023-04-24T17:23:50;11.80;59.79
51878;SHT31;37911;51.526;11.536;2023-04-24T17:26:57;11.84;59.78
51878;SHT31;37911;51.526;11.536;2023-04-24T17:30:01;11.86;59.72
51878;SHT31;37911;51.526;11.536;2023-04-24T17:33:05;11.66;59.52
51878;SHT31;37911;51.526;11.536;2023-04-24T17:36:09;11.59;59.28
51878;SHT31;37911;51.526;11.536;2023-04-24T17:39:12;11.59;59.39
51878;SHT31;37911;51.526;11.536;2023-04-24T17:42:19;11.42;60.04
51878;SHT31;37911;51.526;11.536;2023-04-24T17:45:23;11.40;60.66
51878;SHT31;37911;51.526;11.536;2023-04-24T17:48:26;11.40;60.96
51878;SHT31;37911;51.526;11.536;2023-04-24T17:51:30;11.35;61.21
51878;SHT31;37911;51.526;11.536;2023-04-24T17:54:34;11.39;61.35
51878;SHT31;37911;51.526;11.536;2023-04-24T17:57:40;11.33;61.70
51878;SHT31;37911;51.526;11.536;2023-04-24T18:00:44;11.32;61.70
51878;SHT31;37911;51.526;11.536;2023-04-24T18:03:49;11.30;61.70
51878;SHT31;37911;51.526;11.536;2023-04-24T18:06:52;11.28;61.47
51878;SHT31;37911;51.526;11.536;2023-04-24T18:09:56;11.23;61.72
51878;SHT31;37911;51.526;11.536;2023-04-24T18:13:04;11.14;61.67
51878;SHT31;37911;51.526;11.536;2023-04-24T18:16:09;11.12;62.09
51878;SHT31;37911;51.526;11.536;2023-04-24T18:19:14;11.14;62.19
51878;SHT31;37911;51.526;11.536;2023-04-24T18:22:18;11.19;62.47
51878;SHT31;37911;51.526;11.536;2023-04-24T18:25:22;11.11;62.78
51878;SHT31;37911;51.526;11.536;2023-04-24T18:28:31;11.11;62.97
51878;SHT31;37911;51.526;11.536;2023-04-24T18:31:35;10.91;63.25
51878;SHT31;37911;51.526;11.536;2023-04-24T18:34:39;10.82;63.78
51878;SHT31;37911;51.526;11.536;2023-04-24T18:37:43;10.85;64.14
51878;SHT31;37911;51.526;11.536;2023-04-24T18:40:48;10.74;64.19
51878;SHT31;37911;51.526;11.536;2023-04-24T18:43:54;10.68;64.54
51878;SHT31;37911;51.526;11.536;2023-04-24T18:46:59;10.71;64.71
51878;SHT31;37911;51.526;11.536;2023-04-24T18:50:03;10.64;64.90
51878;SHT31;37911;51.526;11.536;2023-04-24T18:53:06;10.65;64.85
51878;SHT31;37911;51.526;11.536;2023-04-24T18:56:14;10.64;65.15
51878;SHT31;37911;51.526;11.536;2023-04-24T18:59:21;10.57;65.39
51878;SHT31;37911;51.526;11.536;2023-04-24T19:02:25;10.63;65.26
51878;SHT31;37911;51.526;11.536;2023-04-24T19:05:28;10.67;65.23
51878;SHT31;37911;51.526;11.536;2023-04-24T19:08:32;10.51;65.09
51878;SHT31;37911;51.526;11.536;2023-04-24T19:11:38;10.58;64.91
51878;SHT31;37911;51.526;11.536;2023-04-24T19:14:44;10.60;64.79
51878;SHT31;37911;51.526;11.536;2023-04-24T19:17:48;10.53;64.70